This is the latest recevied weather packets stored in our database for station/object K7YVO. If no packets are shown the sender has not sent any weather packets the latest 10 day(s).
| Time | Temp. | Humidity | Pressure | Rain* | Wind** | Luminosity | Snow |
|---|---|---|---|---|---|---|---|
| 1777665524 | 18.33° C | 62% | 1018.2 hPa | 0 mm | - | 684 W/m² | - |
| 1777665219 | 18.89° C | 63% | 1018.2 hPa | 0 mm | - | 619 W/m² | - |
| 1777664915 | 18.33° C | 64% | 1018.3 hPa | 0 mm | - | 455 W/m² | - |
| 1777664611 | 18.89° C | 62% | 1018.4 hPa | 0 mm | - | 714 W/m² | - |
| 1777664308 | 18.89° C | 62% | 1018.4 hPa | 0 mm | - | 379 W/m² | - |
| 1777664007 | 18.89° C | 61% | 1018.4 hPa | 0 mm | - | 664 W/m² | - |
| 1777663704 | 18.33° C | 64% | 1018.7 hPa | 0 mm | - | 630 W/m² | - |
| 1777663401 | 17.78° C | 65% | 1018.7 hPa | 0 mm | - | 616 W/m² | - |
| 1777663097 | 18.33° C | 64% | 1018.5 hPa | 0 mm | - | 597 W/m² | - |
| 1777662794 | 17.78° C | 64% | 1018.6 hPa | 0 mm | - | 634 W/m² | - |
| 1777662491 | 17.22° C | 66% | 1018.7 hPa | 0 mm | - | 626 W/m² | - |
| 1777662187 | 17.22° C | 67% | 1018.8 hPa | 0 mm | - | 660 W/m² | - |
| 1777661877 | 17.22° C | 66% | 1018.7 hPa | 0 mm | - | 589 W/m² | - |
| 1777661573 | 17.22° C | 67% | 1018.8 hPa | 0 mm | - | 601 W/m² | - |
| 1777661269 | 16.67° C | 67% | 1018.7 hPa | 0 mm | - | 591 W/m² | - |
| 1777660965 | 17.22° C | 64% | 1018.9 hPa | 0 mm | - | 608 W/m² | - |
| 1777660661 | 16.67° C | 66% | 1018.8 hPa | 0 mm | - | 588 W/m² | - |
| 1777660358 | 16.67° C | 68% | 1018.9 hPa | 0 mm | - | 586 W/m² | - |
| 1777660054 | 16.67° C | 68% | 1018.8 hPa | 0 mm | - | 582 W/m² | - |
| 1777659752 | 16.67° C | 68% | 1018.9 hPa | 0 mm | - | 591 W/m² | - |
| 1777659448 | 16.11° C | 69% | 1018.7 hPa | 0 mm | - | 541 W/m² | - |
| 1777659146 | 16.11° C | 69% | 1018.9 hPa | 0 mm | - | 578 W/m² | - |
| 1777658844 | 16.11° C | 70% | 1018.8 hPa | 0 mm | - | 608 W/m² | - |
| 1777658539 | 16.11° C | 69% | 1018.8 hPa | 0 mm | - | 532 W/m² | - |
| 1777658236 | 15.56° C | 68% | 1018.8 hPa | 0 mm | - | 537 W/m² | - |
* Rain latest hour (hover to see other rain measurements)
** Current wind speed in m/s (hover to see current wind gust speed)